createdAt,value
2019-05-20T00:01:27.836Z,8.00
2019-05-20T00:03:56.263Z,7.63
2019-05-20T00:06:24.690Z,8.90
2019-05-20T00:08:53.146Z,9.33
2019-05-20T00:11:21.580Z,9.43
2019-05-20T00:13:50.052Z,10.60
2019-05-20T00:16:18.509Z,10.57
2019-05-20T00:18:47.078Z,11.30
2019-05-20T00:21:15.605Z,10.30
2019-05-20T00:23:44.074Z,11.83
2019-05-20T00:26:12.507Z,11.50
2019-05-20T00:28:40.936Z,10.80
2019-05-20T00:31:09.516Z,11.40
2019-05-20T00:33:37.951Z,11.10
2019-05-20T00:36:06.406Z,11.77
2019-05-20T00:38:34.907Z,11.30
2019-05-20T00:41:03.406Z,12.00
2019-05-20T00:43:31.880Z,11.53
2019-05-20T00:46:00.433Z,12.07
2019-05-20T00:48:28.862Z,12.17
2019-05-20T00:50:57.359Z,13.53
2019-05-20T00:53:25.889Z,12.77
2019-05-20T00:55:54.456Z,11.80
2019-05-20T00:58:22.907Z,11.57
2019-05-20T01:00:51.369Z,12.73
2019-05-20T01:03:19.869Z,12.77
2019-05-20T01:05:48.308Z,12.60
2019-05-20T01:08:16.826Z,13.10
2019-05-20T01:10:45.276Z,13.97
2019-05-20T01:13:13.952Z,15.40
2019-05-20T01:15:42.502Z,15.03
2019-05-20T01:18:10.999Z,15.77
2019-05-20T01:20:39.436Z,15.83
2019-05-20T01:23:07.970Z,16.33
2019-05-20T01:25:36.402Z,17.63
2019-05-20T01:28:04.968Z,17.63
2019-05-20T01:30:33.426Z,17.40
2019-05-20T01:33:13.224Z,17.80
2019-05-20T01:35:32.082Z,17.00
2019-05-20T01:38:00.574Z,17.27
2019-05-20T01:40:29.001Z,17.10
2019-05-20T01:42:57.465Z,18.40
2019-05-20T01:45:26.057Z,17.07
2019-05-20T01:47:54.490Z,17.80
2019-05-20T01:50:22.921Z,20.97
2019-05-20T01:52:51.528Z,19.13
2019-05-20T01:55:20.141Z,20.97
2019-05-20T01:57:48.608Z,20.57
2019-05-20T02:00:17.310Z,19.63
2019-05-20T02:02:45.734Z,22.97
2019-05-20T02:05:14.297Z,22.33
2019-05-20T02:07:42.763Z,22.93
2019-05-20T02:10:11.637Z,24.07
2019-05-20T02:12:40.305Z,22.73
2019-05-20T02:15:29.310Z,25.90
2019-05-20T02:17:57.818Z,26.20
2019-05-20T02:20:26.331Z,24.70
2019-05-20T02:22:56.504Z,24.07
2019-05-20T02:25:25.039Z,26.83
2019-05-20T02:27:53.539Z,26.57
2019-05-20T02:30:22.147Z,30.00
2019-05-20T02:32:50.577Z,28.67
2019-05-20T02:35:19.096Z,30.60
2019-05-20T02:37:47.716Z,31.60
2019-05-20T02:40:16.608Z,31.57
2019-05-20T02:42:45.036Z,29.60
2019-05-20T02:45:13.855Z,29.20
2019-05-20T02:47:42.291Z,32.10
2019-05-20T02:50:11.162Z,32.53
2019-05-20T02:52:39.623Z,33.03
2019-05-20T02:55:08.548Z,31.10
2019-05-20T02:57:37.002Z,32.00
2019-05-20T03:00:08.937Z,33.73
2019-05-20T03:02:37.381Z,36.33
2019-05-20T03:05:06.945Z,34.73
2019-05-20T03:07:35.520Z,33.90
2019-05-20T03:10:05.674Z,37.13
2019-05-20T03:12:34.247Z,36.10
2019-05-20T03:15:03.058Z,38.83
2019-05-20T03:17:31.488Z,37.80
2019-05-20T03:19:59.915Z,36.67
2019-05-20T03:22:28.484Z,38.80
2019-05-20T03:24:56.979Z,36.50
2019-05-20T03:27:26.929Z,38.60
2019-05-20T03:29:55.512Z,38.37
2019-05-20T03:32:23.945Z,35.87
2019-05-20T03:34:59.444Z,38.63
2019-05-20T03:37:22.733Z,37.20
2019-05-20T03:39:51.214Z,37.20
2019-05-20T03:42:19.624Z,36.43
2019-05-20T03:44:48.273Z,39.07
2019-05-20T03:47:16.732Z,40.07
2019-05-20T03:49:45.227Z,38.27
2019-05-20T03:52:13.909Z,37.67
2019-05-20T03:54:42.345Z,37.50
2019-05-20T03:57:10.795Z,39.03
2019-05-20T03:59:39.332Z,39.77
2019-05-20T04:02:07.840Z,38.70
2019-05-20T04:04:36.292Z,40.30
2019-05-20T04:07:04.899Z,40.27
2019-05-20T04:09:33.333Z,38.77
2019-05-20T04:12:01.773Z,39.60
2019-05-20T04:14:30.321Z,38.83
2019-05-20T04:16:58.777Z,35.77
2019-05-20T04:19:27.203Z,39.73
2019-05-20T04:21:55.784Z,41.20
2019-05-20T04:24:24.277Z,40.13
2019-05-20T04:26:58.469Z,39.77
2019-05-20T04:29:26.987Z,41.97
2019-05-20T04:31:56.248Z,40.73
2019-05-20T04:34:24.959Z,41.10
2019-05-20T04:36:53.501Z,41.57
2019-05-20T04:39:21.999Z,42.07
2019-05-20T04:41:50.562Z,40.77
2019-05-20T04:44:19.300Z,40.47
2019-05-20T04:46:47.805Z,38.60
2019-05-20T04:49:16.232Z,40.30
2019-05-20T04:51:44.686Z,37.87
2019-05-20T04:54:13.455Z,38.47
2019-05-20T04:56:41.937Z,38.63
2019-05-20T04:59:10.369Z,37.60
2019-05-20T05:01:38.944Z,42.20
2019-05-20T05:04:07.645Z,39.77
2019-05-20T05:06:36.955Z,38.70
2019-05-20T05:09:07.402Z,40.33
2019-05-20T05:11:36.266Z,41.90
2019-05-20T05:14:05.073Z,44.60
2019-05-20T05:16:33.577Z,43.57
2019-05-20T05:19:02.081Z,41.50
2019-05-20T05:21:30.721Z,46.63
2019-05-20T05:23:59.699Z,43.57
2019-05-20T05:26:28.314Z,43.67
2019-05-20T05:28:56.923Z,44.63
2019-05-20T05:31:25.433Z,42.90
2019-05-20T05:33:54.510Z,44.40
2019-05-20T05:36:23.323Z,44.80
2019-05-20T05:38:51.863Z,44.67
2019-05-20T05:41:20.442Z,45.23
2019-05-20T05:43:49.082Z,43.40
2019-05-20T05:46:17.580Z,46.03
2019-05-20T05:48:46.018Z,46.30
2019-05-20T05:51:14.726Z,44.30
2019-05-20T05:53:43.242Z,43.90
2019-05-20T05:56:11.666Z,43.50
2019-05-20T05:58:40.165Z,44.20
2019-05-20T06:01:08.776Z,41.97
2019-05-20T06:03:37.273Z,41.83
2019-05-20T06:06:12.388Z,43.27
2019-05-20T06:08:36.017Z,40.80
2019-05-20T06:11:04.457Z,43.07
2019-05-20T06:13:32.941Z,39.93
2019-05-20T06:16:01.400Z,41.30
2019-05-20T06:18:29.929Z,41.03
2019-05-20T06:20:58.413Z,40.77
2019-05-20T06:23:26.912Z,41.63
2019-05-20T06:25:55.346Z,42.10
2019-05-20T06:28:23.909Z,40.23
2019-05-20T06:30:52.585Z,38.00
2019-05-20T06:33:21.016Z,39.90
2019-05-20T06:35:49.813Z,38.33
2019-05-20T06:38:20.325Z,37.27
2019-05-20T06:40:48.805Z,38.17
2019-05-20T06:43:17.414Z,37.37
2019-05-20T06:45:45.924Z,40.27
2019-05-20T06:48:14.378Z,38.47
2019-05-20T06:50:42.993Z,33.27
2019-05-20T06:53:11.420Z,35.53
2019-05-20T06:55:39.855Z,36.63
2019-05-20T06:58:08.433Z,37.67
2019-05-20T07:00:38.938Z,36.90
2019-05-20T07:03:08.120Z,38.07
2019-05-20T07:05:36.665Z,33.80
2019-05-20T07:08:05.331Z,34.83
2019-05-20T07:10:33.902Z,37.20
2019-05-20T07:13:02.526Z,38.80
2019-05-20T07:15:31.171Z,38.73
2019-05-20T07:17:59.632Z,39.13
2019-05-20T07:20:28.144Z,37.93
2019-05-20T07:22:57.232Z,36.13
2019-05-20T07:25:25.890Z,41.00
2019-05-20T07:27:54.409Z,40.23
2019-05-20T07:30:22.911Z,40.37
2019-05-20T07:32:51.543Z,40.03
2019-05-20T07:35:30.321Z,41.30
2019-05-20T07:37:50.364Z,41.50
2019-05-20T07:40:30.381Z,42.07
2019-05-20T07:42:59.067Z,36.97
2019-05-20T07:45:29.858Z,41.93
2019-05-20T07:47:58.850Z,40.03
2019-05-20T07:50:28.121Z,43.97
2019-05-20T07:53:00.338Z,43.20
2019-05-20T07:55:30.456Z,42.20
2019-05-20T07:58:01.976Z,40.10
2019-05-20T08:00:30.611Z,40.90
2019-05-20T08:02:59.216Z,43.03
2019-05-20T08:05:27.717Z,40.17
2019-05-20T08:07:56.255Z,40.50
2019-05-20T08:10:24.861Z,38.47
2019-05-20T08:12:53.451Z,41.87
2019-05-20T08:15:22.054Z,37.17
2019-05-20T08:17:50.590Z,38.90
2019-05-20T08:20:19.160Z,38.77
2019-05-20T08:22:47.732Z,40.60
2019-05-20T08:25:17.023Z,40.63
2019-05-20T08:27:45.532Z,41.20
2019-05-20T08:30:15.611Z,40.80
2019-05-20T08:32:44.076Z,41.50
2019-05-20T08:35:13.054Z,42.00
2019-05-20T08:37:45.751Z,42.57
2019-05-20T08:40:11.958Z,41.47
2019-05-20T08:42:40.366Z,42.57
2019-05-20T08:45:09.253Z,43.13
2019-05-20T08:47:37.695Z,43.90
2019-05-20T08:50:10.974Z,43.63
2019-05-20T08:52:37.293Z,40.33
2019-05-20T08:55:07.001Z,37.50
2019-05-20T08:57:35.502Z,38.50
2019-05-20T09:00:05.388Z,41.50
2019-05-20T09:02:33.826Z,38.23
2019-05-20T09:05:02.291Z,39.27
2019-05-20T09:07:30.682Z,33.97
2019-05-20T09:09:59.149Z,35.30
2019-05-20T09:12:27.607Z,33.27
2019-05-20T09:14:56.021Z,33.87
2019-05-20T09:17:24.471Z,29.87
2019-05-20T09:19:53.080Z,28.10
2019-05-20T09:22:21.570Z,26.67
2019-05-20T09:24:50.386Z,27.00
2019-05-20T09:27:19.074Z,26.30
2019-05-20T09:29:47.576Z,26.20
2019-05-20T09:32:16.274Z,24.40
2019-05-20T09:34:45.209Z,25.83
2019-05-20T09:37:13.778Z,23.37
2019-05-20T09:39:42.227Z,25.10
2019-05-20T09:42:10.669Z,22.40
2019-05-20T09:44:39.123Z,23.50
2019-05-20T09:47:07.711Z,23.60
2019-05-20T09:49:36.180Z,25.50
2019-05-20T09:52:04.657Z,24.97
2019-05-20T09:54:33.198Z,21.07
2019-05-20T09:57:01.609Z,24.17
2019-05-20T09:59:42.552Z,26.80
2019-05-20T10:02:00.516Z,27.07
2019-05-20T10:04:28.954Z,25.60
2019-05-20T10:06:57.395Z,27.13
2019-05-20T10:09:26.040Z,27.00
2019-05-20T10:11:55.141Z,24.57
2019-05-20T10:14:23.644Z,26.63
2019-05-20T10:16:52.241Z,26.60
2019-05-20T10:19:20.690Z,27.60
2019-05-20T10:21:49.101Z,26.97
2019-05-20T10:24:17.563Z,25.90
2019-05-20T10:26:46.065Z,25.23
2019-05-20T10:29:14.588Z,50.73
2019-05-20T10:31:43.326Z,27.47
2019-05-20T10:34:11.750Z,27.40
2019-05-20T10:36:40.166Z,24.83
2019-05-20T10:39:08.894Z,25.57
2019-05-20T10:41:37.385Z,24.90
2019-05-20T10:44:05.963Z,24.47
2019-05-20T10:46:34.596Z,24.70
2019-05-20T10:49:03.133Z,22.60
2019-05-20T10:51:31.546Z,21.40
2019-05-20T10:54:00.010Z,23.13
2019-05-20T10:56:28.435Z,21.63
2019-05-20T10:58:56.875Z,20.97
2019-05-20T11:01:25.491Z,23.10
2019-05-20T11:03:53.925Z,20.80
2019-05-20T11:06:22.406Z,20.37
2019-05-20T11:08:50.848Z,20.63
2019-05-20T11:11:19.283Z,21.37
2019-05-20T11:13:47.726Z,23.60
2019-05-20T11:16:16.365Z,19.70
2019-05-20T11:18:44.802Z,21.30
2019-05-20T11:21:13.306Z,23.00
2019-05-20T11:23:41.866Z,22.03
2019-05-20T11:26:11.117Z,22.90
2019-05-20T11:28:39.556Z,27.03
2019-05-20T11:31:08.201Z,23.17
2019-05-20T11:33:36.631Z,24.07
2019-05-20T11:36:05.167Z,25.83
2019-05-20T11:38:33.740Z,21.50
2019-05-20T11:41:02.172Z,22.20
2019-05-20T11:43:30.604Z,24.30
2019-05-20T11:45:59.060Z,22.80
2019-05-20T11:48:27.728Z,21.73
2019-05-20T11:50:56.162Z,23.30
2019-05-20T11:53:24.717Z,21.40
2019-05-20T11:55:53.170Z,20.43
2019-05-20T11:58:21.714Z,20.67
2019-05-20T12:00:50.207Z,21.10
2019-05-20T12:03:18.706Z,22.67
2019-05-20T12:05:47.180Z,22.57
2019-05-20T12:08:15.704Z,19.50
2019-05-20T12:10:44.864Z,21.00
2019-05-20T12:13:13.296Z,22.00
2019-05-20T12:15:41.841Z,20.50
2019-05-20T12:18:10.278Z,20.67
2019-05-20T12:20:38.708Z,22.27
2019-05-20T12:23:07.175Z,22.87
2019-05-20T12:25:35.605Z,21.70
2019-05-20T12:28:04.118Z,21.77
2019-05-20T12:30:32.778Z,21.93
2019-05-20T12:33:18.006Z,22.73
2019-05-20T12:35:31.511Z,22.63
2019-05-20T12:38:00.109Z,20.20
2019-05-20T12:40:28.540Z,21.57
2019-05-20T12:42:56.978Z,22.67
2019-05-20T12:45:25.529Z,21.10
2019-05-20T12:47:54.275Z,21.60
2019-05-20T12:50:24.211Z,22.40
2019-05-20T12:52:52.774Z,20.93
2019-05-20T12:55:21.377Z,22.40
2019-05-20T12:57:49.810Z,24.00
2019-05-20T13:00:19.018Z,22.07
2019-05-20T13:02:47.454Z,21.83
2019-05-20T13:05:16.018Z,23.10
2019-05-20T13:07:44.751Z,21.60
2019-05-20T13:10:32.103Z,22.30
2019-05-20T13:12:43.881Z,23.37
2019-05-20T13:15:12.871Z,23.27
2019-05-20T13:17:44.703Z,22.00
2019-05-20T13:20:12.276Z,25.20
2019-05-20T13:22:40.799Z,24.17
2019-05-20T13:25:09.772Z,23.83
2019-05-20T13:27:38.194Z,25.00
2019-05-20T13:30:11.694Z,22.30
2019-05-20T13:32:40.123Z,25.13
2019-05-20T13:35:08.993Z,25.10
2019-05-20T13:37:38.135Z,26.00
2019-05-20T13:40:07.604Z,26.83
2019-05-20T13:42:36.313Z,27.50
2019-05-20T13:45:08.201Z,29.07
2019-05-20T13:47:36.789Z,28.50
2019-05-20T13:50:09.772Z,29.00
2019-05-20T13:52:38.391Z,31.03
2019-05-20T13:55:07.466Z,32.13
2019-05-20T13:57:35.964Z,30.40
2019-05-20T14:00:06.138Z,31.03
2019-05-20T14:02:34.717Z,33.13
2019-05-20T14:05:03.578Z,37.30
2019-05-20T14:07:32.200Z,34.23
2019-05-20T14:10:00.634Z,37.10
2019-05-20T14:12:29.146Z,35.03
2019-05-20T14:14:57.670Z,36.73
2019-05-20T14:17:26.135Z,38.83
2019-05-20T14:19:54.647Z,39.97
2019-05-20T14:22:23.119Z,41.40
2019-05-20T14:24:51.625Z,36.37
2019-05-20T14:27:20.126Z,38.30
2019-05-20T14:29:48.586Z,36.93
2019-05-20T14:32:17.119Z,37.60
2019-05-20T14:34:45.535Z,39.20
2019-05-20T14:37:14.078Z,40.90
2019-05-20T14:39:42.538Z,40.57
2019-05-20T14:42:11.088Z,36.10
2019-05-20T14:44:39.830Z,41.53
2019-05-20T14:47:08.266Z,43.47
2019-05-20T14:49:36.697Z,38.90
2019-05-20T14:52:06.046Z,40.37
2019-05-20T14:54:34.554Z,39.60
2019-05-20T14:57:02.995Z,41.00
2019-05-20T14:59:31.441Z,40.50
2019-05-20T15:01:59.972Z,39.90
2019-05-20T15:04:28.472Z,42.07
2019-05-20T15:06:57.077Z,38.57
2019-05-20T15:09:25.565Z,41.13
2019-05-20T15:11:53.950Z,37.80
2019-05-20T15:14:22.413Z,39.77
2019-05-20T15:16:50.918Z,40.27
2019-05-20T15:19:19.420Z,38.67
2019-05-20T15:21:47.972Z,38.30
2019-05-20T15:24:16.418Z,38.10
2019-05-20T15:26:44.951Z,37.10
2019-05-20T15:29:27.056Z,40.37
2019-05-20T15:31:43.711Z,39.53
2019-05-20T15:34:12.192Z,37.30
2019-05-20T15:36:40.729Z,37.13
2019-05-20T15:39:09.172Z,38.13
2019-05-20T15:41:37.608Z,38.60
2019-05-20T15:44:06.149Z,40.50
2019-05-20T15:46:34.652Z,36.90
2019-05-20T15:49:03.083Z,37.60
2019-05-20T15:51:31.740Z,38.23
2019-05-20T15:54:00.245Z,36.83
2019-05-20T15:56:28.759Z,39.40
2019-05-20T15:58:57.243Z,37.27
2019-05-20T16:01:25.696Z,37.40
2019-05-20T16:03:54.114Z,38.40
2019-05-20T16:06:22.583Z,38.53
2019-05-20T16:08:51.029Z,33.57
2019-05-20T16:11:19.462Z,36.37
2019-05-20T16:13:47.921Z,36.40
2019-05-20T16:16:16.366Z,38.37
2019-05-20T16:18:44.804Z,36.00
2019-05-20T16:21:13.405Z,35.47
2019-05-20T16:23:41.907Z,35.90
2019-05-20T16:26:10.375Z,35.87
2019-05-20T16:28:38.899Z,36.67
2019-05-20T16:31:07.439Z,33.30
2019-05-20T16:33:35.846Z,36.37
2019-05-20T16:36:04.442Z,35.27
2019-05-20T16:38:32.876Z,37.17
2019-05-20T16:41:01.311Z,33.10
2019-05-20T16:43:29.777Z,37.83
2019-05-20T16:45:58.283Z,35.50
2019-05-20T16:48:26.717Z,34.67
2019-05-20T16:50:55.362Z,37.03
2019-05-20T16:53:23.950Z,35.57
2019-05-20T16:55:52.454Z,36.73
2019-05-20T16:58:21.090Z,36.20
2019-05-20T17:00:49.522Z,37.80
2019-05-20T17:03:18.021Z,40.80
2019-05-20T17:05:46.673Z,37.47
2019-05-20T17:08:15.106Z,37.73
2019-05-20T17:10:43.573Z,36.83
2019-05-20T17:13:12.049Z,34.57
2019-05-20T17:15:40.487Z,39.07
2019-05-20T17:18:08.954Z,39.30
2019-05-20T17:20:37.443Z,37.10
2019-05-20T17:23:05.948Z,39.30
2019-05-20T17:25:34.401Z,37.27
2019-05-20T17:28:03.083Z,37.10
2019-05-20T17:30:44.353Z,35.50
2019-05-20T17:33:01.872Z,39.50
2019-05-20T17:35:30.329Z,36.63
2019-05-20T17:37:58.859Z,38.03
2019-05-20T17:40:27.419Z,38.87
2019-05-20T17:42:56.014Z,37.30
2019-05-20T17:45:24.613Z,39.30
2019-05-20T17:47:53.113Z,36.30
2019-05-20T17:50:21.971Z,37.57
2019-05-20T17:52:50.400Z,36.47
2019-05-20T17:55:18.912Z,37.57
2019-05-20T17:57:47.527Z,37.73
2019-05-20T18:00:17.970Z,37.70
2019-05-20T18:02:46.386Z,35.63
2019-05-20T18:05:15.176Z,38.63
2019-05-20T18:07:43.678Z,36.60
2019-05-20T18:10:12.823Z,35.90
2019-05-20T18:12:41.477Z,39.10
2019-05-20T18:15:10.549Z,36.60
2019-05-20T18:17:39.050Z,33.53
2019-05-20T18:20:08.047Z,35.30
2019-05-20T18:22:36.570Z,34.30
2019-05-20T18:25:07.013Z,33.67
2019-05-20T18:27:35.643Z,35.07
2019-05-20T18:30:06.114Z,35.23
2019-05-20T18:32:34.685Z,35.07
2019-05-20T18:35:03.524Z,34.17
2019-05-20T18:37:32.107Z,34.40
2019-05-20T18:40:13.403Z,36.40
2019-05-20T18:42:30.820Z,33.60
2019-05-20T18:44:59.267Z,34.57
2019-05-20T18:47:28.009Z,35.90
2019-05-20T18:49:56.854Z,32.63
2019-05-20T18:52:25.306Z,32.90
2019-05-20T18:54:53.821Z,33.30
2019-05-20T18:57:22.478Z,34.50
2019-05-20T18:59:51.028Z,34.37
2019-05-20T19:02:19.539Z,31.97
2019-05-20T19:04:48.024Z,33.03
2019-05-20T19:07:16.567Z,31.60
2019-05-20T19:09:45.454Z,31.20
2019-05-20T19:12:14.064Z,33.90
2019-05-20T19:14:42.685Z,32.47
2019-05-20T19:17:11.333Z,31.67
2019-05-20T19:19:39.917Z,32.93
2019-05-20T19:22:08.477Z,33.43
2019-05-20T19:24:36.918Z,33.17
2019-05-20T19:27:05.952Z,33.70
2019-05-20T19:29:34.538Z,30.63
2019-05-20T19:32:03.257Z,34.60
2019-05-20T19:34:31.810Z,32.60
2019-05-20T19:37:00.318Z,31.30
2019-05-20T19:39:28.900Z,31.73
2019-05-20T19:41:57.448Z,30.40
2019-05-20T19:44:26.038Z,32.07
2019-05-20T19:46:54.588Z,31.07
2019-05-20T19:49:23.037Z,32.17
2019-05-20T19:51:51.518Z,30.53
2019-05-20T19:54:19.964Z,31.83
2019-05-20T19:56:48.661Z,33.80
2019-05-20T19:59:17.104Z,33.37
2019-05-20T20:01:45.718Z,31.30
2019-05-20T20:04:14.241Z,30.80
2019-05-20T20:06:42.671Z,30.63
2019-05-20T20:09:11.104Z,29.80
2019-05-20T20:11:39.644Z,31.73
2019-05-20T20:14:08.084Z,32.47
2019-05-20T20:16:36.554Z,32.00
2019-05-20T20:19:05.200Z,33.67
2019-05-20T20:21:33.632Z,37.43
2019-05-20T20:24:02.105Z,34.13
2019-05-20T20:26:30.564Z,34.47
2019-05-20T20:28:58.993Z,38.63
2019-05-20T20:31:27.531Z,35.63
2019-05-20T20:33:56.106Z,38.07
2019-05-20T20:36:24.537Z,37.73
2019-05-20T20:38:53.113Z,37.10
2019-05-20T20:41:21.888Z,38.90
2019-05-20T20:43:50.390Z,37.70
2019-05-20T20:46:18.818Z,39.93
2019-05-20T20:48:47.355Z,44.43
2019-05-20T20:51:15.799Z,40.30
2019-05-20T20:53:44.238Z,39.73
2019-05-20T20:56:24.923Z,41.20
2019-05-20T20:58:42.990Z,41.50
2019-05-20T21:01:11.421Z,40.93
2019-05-20T21:03:39.996Z,43.17
2019-05-20T21:06:08.518Z,41.30
2019-05-20T21:08:36.949Z,42.30
2019-05-20T21:11:05.481Z,40.43
2019-05-20T21:13:33.914Z,40.90
2019-05-20T21:16:02.412Z,41.60
2019-05-20T21:18:30.873Z,44.17
2019-05-20T21:20:59.309Z,42.10
2019-05-20T21:23:27.759Z,42.07
2019-05-20T21:25:56.294Z,40.90
2019-05-20T21:28:24.799Z,39.37
2019-05-20T21:30:53.229Z,39.57
2019-05-20T21:33:21.876Z,40.27
2019-05-20T21:35:50.311Z,38.97
2019-05-20T21:38:18.819Z,39.40
2019-05-20T21:40:47.325Z,39.17
2019-05-20T21:43:15.764Z,41.27
2019-05-20T21:45:44.198Z,39.90
2019-05-20T21:48:12.661Z,40.07
2019-05-20T21:50:41.161Z,37.63
2019-05-20T21:53:09.661Z,37.40
2019-05-20T21:55:38.210Z,37.67
2019-05-20T21:58:06.651Z,37.70
2019-05-20T22:00:37.200Z,41.33
2019-05-20T22:03:05.722Z,36.50
2019-05-20T22:05:34.231Z,36.30
2019-05-20T22:08:04.212Z,35.90
2019-05-20T22:10:32.804Z,34.97
2019-05-20T22:13:01.233Z,38.07
2019-05-20T22:15:29.665Z,36.83
2019-05-20T22:17:58.131Z,36.10
2019-05-20T22:20:26.662Z,37.90
2019-05-20T22:23:12.866Z,38.50
2019-05-20T22:25:41.388Z,36.60
2019-05-20T22:28:12.772Z,36.73
2019-05-20T22:30:40.005Z,36.93
2019-05-20T22:33:08.443Z,35.37
2019-05-20T22:35:37.726Z,36.37
2019-05-20T22:38:06.311Z,37.50
2019-05-20T22:40:34.810Z,36.07
2019-05-20T22:43:03.258Z,36.57
2019-05-20T22:45:33.064Z,36.70
2019-05-20T22:48:01.644Z,37.87
2019-05-20T22:50:30.077Z,37.50
2019-05-20T22:52:58.706Z,35.60
2019-05-20T22:55:27.216Z,35.00
2019-05-20T22:57:55.642Z,34.07
2019-05-20T23:00:24.185Z,36.53
2019-05-20T23:02:52.696Z,34.80
2019-05-20T23:05:21.150Z,34.67
2019-05-20T23:07:49.677Z,34.03
2019-05-20T23:10:18.454Z,35.83
2019-05-20T23:12:46.892Z,34.57
2019-05-20T23:15:15.501Z,35.03
2019-05-20T23:17:44.012Z,33.37
2019-05-20T23:20:12.792Z,36.53
2019-05-20T23:22:41.250Z,32.60
2019-05-20T23:25:09.796Z,35.43
2019-05-20T23:27:38.368Z,34.13
2019-05-20T23:30:10.560Z,34.70
2019-05-20T23:32:39.025Z,33.30
2019-05-20T23:35:07.803Z,35.30
2019-05-20T23:37:37.781Z,32.50
2019-05-20T23:40:07.186Z,32.53
2019-05-20T23:42:35.619Z,33.80
2019-05-20T23:45:06.620Z,29.67
2019-05-20T23:47:35.066Z,31.50
2019-05-20T23:50:03.833Z,31.63
2019-05-20T23:52:32.299Z,32.87
2019-05-20T23:55:00.729Z,28.07
2019-05-20T23:57:29.229Z,32.13
2019-05-20T23:59:57.759Z,31.00
